Time;durP1;ratioP1;P1;durP2;ratioP2;P2;SDS_P1;SDS_P2;PMS_P1;PMS_P2;Temp;Humidity;BMP_temperature;BMP_pressure;BME280_temperature;BME280_humidity;BME280_pressure;Samples;Min_cycle;Max_cycle;Signal;HPM_P1;HPM_P2
2021/11/12 00:02:19;;;;;;;12.17;10.00;;;2.70;99.90;;;;;;5089193;28;20406;-82
2021/11/12 00:12:44;;;;;;;12.57;10.40;;;2.60;99.90;;;;;;5082468;28;20452;-82
2021/11/12 00:15:12;;;;;;;17.40;10.87;;;2.60;99.90;;;;;;5082392;28;20510;-82
2021/11/12 00:17:40;;;;;;;12.40;9.53;;;2.60;99.90;;;;;;5064725;28;20411;-82
2021/11/12 00:20:07;;;;;;;14.03;10.77;;;2.60;99.90;;;;;;5063801;28;20540;-83
2021/11/12 00:22:33;;;;;;;14.80;11.03;;;2.60;99.90;;;;;;5082045;28;20419;-82
2021/11/12 00:25:02;;;;;;;15.33;11.50;;;2.50;99.90;;;;;;5064237;28;20964;-82
2021/11/12 00:27:28;;;;;;;15.73;11.13;;;2.50;99.90;;;;;;5064965;28;20461;-82
2021/11/12 00:37:58;;;;;;;17.33;12.83;;;2.40;99.90;;;;;;5086376;28;20395;-83
2021/11/12 00:40:35;;;;;;;15.73;11.00;;;2.40;99.90;;;;;;5086772;28;20402;-84
2021/11/12 00:45:32;;;;;;;14.67;11.40;;;2.40;99.90;;;;;;5086476;28;20433;-82
2021/11/12 00:48:10;;;;;;;16.03;11.77;;;2.50;99.90;;;;;;5086908;28;20255;-83
2021/11/12 00:55:39;;;;;;;23.83;12.73;;;2.40;99.90;;;;;;5094383;28;20466;-82
2021/11/12 00:58:07;;;;;;;20.00;11.47;;;2.50;99.90;;;;;;5095968;28;20482;-82
2021/11/12 01:00:33;;;;;;;25.20;13.03;;;2.50;99.90;;;;;;5077443;28;20414;-82
2021/11/12 01:02:59;;;;;;;17.97;13.03;;;2.50;99.90;;;;;;5068323;28;20415;-82
2021/11/12 01:05:25;;;;;;;19.70;12.33;;;2.50;99.90;;;;;;5067167;28;20519;-82
2021/11/12 01:07:51;;;;;;;19.47;11.67;;;2.50;99.90;;;;;;5085168;28;20172;-82
2021/11/12 01:10:17;;;;;;;22.47;12.83;;;2.50;99.90;;;;;;5067720;28;20173;-82
2021/11/12 01:12:44;;;;;;;78.27;13.37;;;2.50;99.90;;;;;;5085158;28;20169;-82
2021/11/12 01:15:12;;;;;;;22.03;12.67;;;2.50;99.90;;;;;;5067265;28;20435;-82
2021/11/12 01:17:39;;;;;;;64.87;13.47;;;2.40;99.90;;;;;;5066844;28;20464;-82
2021/11/12 01:20:06;;;;;;;29.93;11.17;;;2.40;99.90;;;;;;5066938;28;20479;-82
2021/11/12 01:22:33;;;;;;;35.63;12.47;;;2.40;99.90;;;;;;5084781;28;20464;-82
2021/11/12 01:25:00;;;;;;;20.33;11.40;;;2.30;99.90;;;;;;5067011;28;20439;-82
2021/11/12 01:27:27;;;;;;;18.93;11.67;;;2.40;99.90;;;;;;5085123;28;20411;-82
2021/11/12 01:29:52;;;;;;;16.60;12.03;;;2.40;99.90;;;;;;5067112;28;20502;-82
2021/11/12 01:32:19;;;;;;;17.50;12.37;;;2.40;99.90;;;;;;5067505;28;20438;-82
2021/11/12 01:34:45;;;;;;;21.53;11.33;;;;;;;;;;5066915;28;20189;-82
2021/11/12 01:37:12;;;;;;;26.43;11.20;;;2.30;99.90;;;;;;5085899;28;20466;-82
2021/11/12 01:39:38;;;;;;;17.50;10.87;;;2.40;99.90;;;;;;5069728;28;20439;-82
2021/11/12 01:42:04;;;;;;;16.33;10.70;;;2.20;99.90;;;;;;5070590;28;20422;-83
2021/11/12 01:44:33;;;;;;;13.13;10.47;;;2.30;99.90;;;;;;5071896;28;20197;-82
2021/11/12 01:49:48;;;;;;;12.37;9.70;;;2.30;99.90;;;;;;5085467;28;20391;-82
2021/11/12 01:52:21;;;;;;;13.13;10.03;;;;;;;;;;5085171;28;20414;-82
2021/11/12 01:55:02;;;;;;;13.47;9.83;;;2.30;99.90;;;;;;5066358;28;20442;-82
2021/11/12 01:59:55;;;;;;;12.37;9.60;;;;;;;;;;5086058;28;20391;-83
2021/11/12 02:02:22;;;;;;;11.60;9.07;;;;;;;;;;5066261;28;20421;-82
2021/11/12 02:04:48;;;;;;;9.83;7.97;;;;;;;;;;5066586;28;20460;-83
2021/11/12 02:07:14;;;;;;;12.07;8.90;;;;;;;;;;5066624;28;20928;-82
2021/11/12 02:09:40;;;;;;;15.87;10.50;;;;;;;;;;5067248;28;20407;-83
2021/11/12 02:12:19;;;;;;;11.37;9.80;;;2.40;99.90;;;;;;5084831;28;20466;-82
2021/11/12 02:14:47;;;;;;;13.40;9.70;;;2.40;99.90;;;;;;5066624;28;20541;-83
2021/11/12 02:17:26;;;;;;;12.57;9.43;;;2.40;99.90;;;;;;5084071;28;20461;-83
2021/11/12 02:20:10;;;;;;;12.53;8.93;;;2.40;99.90;;;;;;5084944;28;20398;-83
2021/11/12 02:22:37;;;;;;;13.77;10.50;;;;;;;;;;5066503;28;20426;-83
2021/11/12 02:25:13;;;;;;;13.83;9.23;;;;;;;;;;5066604;28;20852;-83
2021/11/12 02:28:03;;;;;;;15.37;11.33;;;;;;;;;;5066972;28;20403;-82
2021/11/12 02:30:29;;;;;;;14.87;10.07;;;2.50;99.90;;;;;;5084085;28;20419;-82
2021/11/12 02:33:15;;;;;;;15.03;10.57;;;2.60;99.90;;;;;;5066415;28;20844;-82
2021/11/12 02:35:57;;;;;;;14.43;10.70;;;2.50;99.90;;;;;;5066726;28;20481;-82
2021/11/12 02:38:23;;;;;;;12.33;9.30;;;;;;;;;;5066410;28;20411;-82
2021/11/12 02:40:50;;;;;;;13.63;10.00;;;;;;;;;;5084476;28;20923;-82
2021/11/12 02:43:17;;;;;;;13.63;9.67;;;;;;;;;;5084373;28;20407;-83
2021/11/12 02:45:44;;;;;;;15.23;10.37;;;;;;;;;;5066503;28;20469;-82
2021/11/12 02:48:11;;;;;;;12.50;10.30;;;;;;;;;;5084611;28;20442;-83
2021/11/12 02:50:37;;;;;;;16.73;10.53;;;;;;;;;;5066588;28;20419;-83
2021/11/12 02:53:09;;;;;;;13.57;9.80;;;;;;;;;;5066816;28;20421;-82
2021/11/12 02:55:35;;;;;;;14.47;10.80;;;;;;;;;;5066473;28;20462;-82
2021/11/12 02:58:00;;;;;;;15.07;10.80;;;2.20;99.90;;;;;;5072171;28;20419;-82
2021/11/12 03:00:27;;;;;;;14.07;9.40;;;;;;;;;;5075546;28;20180;-82
2021/11/12 03:02:53;;;;;;;14.03;9.93;;;;;;;;;;5075812;28;20177;-82
2021/11/12 03:05:19;;;;;;;17.80;12.13;;;2.20;99.90;;;;;;5072650;28;20511;-83
2021/11/12 03:07:45;;;;;;;13.43;10.20;;;2.30;99.90;;;;;;5065787;28;20453;-83
2021/11/12 03:10:11;;;;;;;14.00;11.03;;;2.20;99.90;;;;;;5065879;28;20642;-83
2021/11/12 03:12:37;;;;;;;15.77;10.67;;;2.20;99.90;;;;;;5082954;28;20255;-82
2021/11/12 03:15:04;;;;;;;20.33;13.57;;;2.30;99.90;;;;;;5065869;28;20462;-83
2021/11/12 03:17:30;;;;;;;19.70;13.00;;;2.20;99.90;;;;;;5066163;28;20655;-83
2021/11/12 03:19:56;;;;;;;25.60;15.40;;;;;;;;;;5065887;28;20474;-82
2021/11/12 03:22:24;;;;;;;71.97;37.00;;;;;;;;;;5084081;28;20219;-83
2021/11/12 03:25:02;;;;;;;26.50;15.20;;;;;;;;;;5083530;28;20426;-82
2021/11/12 03:27:33;;;;;;;19.07;12.60;;;;;;;;;;5089005;28;20408;-82
2021/11/12 04:03:06;;;;;;;14.50;9.83;;;1.90;99.90;;;;;;5083575;28;20403;-82
2021/11/12 04:22:19;;;;;;;10.90;7.97;;;1.70;99.90;;;;;;5079917;28;20487;-82
2021/11/12 05:51:32;;;;;;;9.67;7.63;;;1.00;99.90;;;;;;5082215;28;20407;-82
2021/11/12 05:56:44;;;;;;;9.30;7.90;;;;;;;;;;5078848;28;20970;-81
2021/11/12 05:59:13;;;;;;;9.63;7.10;;;0.90;99.90;;;;;;5060846;28;20763;-82
2021/11/12 06:01:40;;;;;;;11.30;7.37;;;0.80;99.90;;;;;;5060795;28;20415;-81
2021/11/12 06:04:06;;;;;;;11.77;9.40;;;0.90;99.90;;;;;;5059940;28;20427;-81
2021/11/12 06:06:33;;;;;;;10.47;7.77;;;;;;;;;;5078055;28;20418;-81
2021/11/12 06:08:59;;;;;;;12.27;7.40;;;0.90;99.90;;;;;;5059396;28;20415;-82
2021/11/12 06:11:27;;;;;;;10.13;7.40;;;;;;;;;;5060334;28;20414;-82
2021/11/12 06:13:54;;;;;;;10.23;7.70;;;0.80;99.90;;;;;;5081056;28;20399;-83
2021/11/12 06:16:21;;;;;;;7.10;6.30;;;0.70;99.90;;;;;;5063501;28;20459;-83
2021/11/12 06:18:48;;;;;;;8.57;7.17;;;;;;;;;;5063468;28;20433;-83
2021/11/12 06:21:14;;;;;;;10.40;7.57;;;0.90;99.90;;;;;;5063974;28;20437;-83
2021/11/12 06:23:41;;;;;;;9.87;7.73;;;0.80;99.90;;;;;;5089063;28;20415;-82
2021/11/12 06:26:08;;;;;;;8.87;7.57;;;0.90;99.90;;;;;;5073656;28;20196;-82
2021/11/12 06:28:34;;;;;;;9.80;7.47;;;;;;;;;;5074616;28;20940;-82
2021/11/12 06:31:00;;;;;;;13.37;8.13;;;;;;;;;;5075702;28;20442;-83
2021/11/12 06:33:29;;;;;;;13.60;7.73;;;0.90;99.90;;;;;;5075550;28;20471;-82
2021/11/12 06:35:56;;;;;;;52.73;8.67;;;;;;;;;;5092709;28;20475;-82
2021/11/12 06:38:25;;;;;;;49.60;8.87;;;;;;;;;;5064153;28;20410;-83
2021/11/12 06:40:51;;;;;;;64.13;8.97;;;0.90;99.90;;;;;;5062753;28;20435;-83
2021/11/12 06:51:15;;;;;;;25.63;9.30;;;0.80;99.90;;;;;;5080927;28;20382;-84
2021/11/12 06:53:41;;;;;;;22.33;9.17;;;1.00;99.90;;;;;;5080140;28;20403;-84
2021/11/12 06:56:07;;;;;;;16.20;8.43;;;0.90;99.90;;;;;;5061300;28;20812;-84
2021/11/12 06:58:34;;;;;;;21.60;9.00;;;1.00;99.90;;;;;;5062255;28;20181;-84
2021/11/12 07:01:01;;;;;;;17.50;10.57;;;;;;;;;;5062147;28;20177;-84
2021/11/12 07:03:27;;;;;;;23.17;9.67;;;;;;;;;;5062156;28;20418;-83
2021/11/12 07:05:54;;;;;;;20.33;9.60;;;;;;;;;;5062075;28;20481;-80
2021/11/12 07:08:20;;;;;;;15.63;9.70;;;;;;;;;;5080060;28;20506;-82
2021/11/12 07:10:47;;;;;;;29.43;9.87;;;;;;;;;;5062774;28;20515;-83
2021/11/12 07:13:13;;;;;;;23.80;8.87;;;;;;;;;;5063622;28;21009;-85
2021/11/12 07:15:39;;;;;;;26.67;9.73;;;;;;;;;;5075335;28;20470;-82
2021/11/12 07:18:05;;;;;;;21.70;9.97;;;;;;;;;;5071438;28;20490;-83
2021/11/12 07:20:32;;;;;;;21.50;9.17;;;;;;;;;;5059804;28;20439;-83
2021/11/12 07:22:58;;;;;;;21.70;9.27;;;;;;;;;;5059630;28;20457;-83
2021/11/12 07:25:24;;;;;;;26.63;9.77;;;;;;;;;;5059888;28;20430;-82
2021/11/12 07:27:51;;;;;;;23.47;10.60;;;;;;;;;;5078117;28;20431;-82
2021/11/12 07:30:19;;;;;;;30.10;10.50;;;1.60;99.90;;;;;;5060082;28;21034;-83
2021/11/12 07:32:47;;;;;;;20.17;12.00;;;;;;;;;;5060130;28;20419;-83
2021/11/12 07:35:16;;;;;;;18.20;9.80;;;1.80;99.90;;;;;;5059341;28;21014;-82
2021/11/12 07:37:42;;;;;;;20.17;11.30;;;;;;;;;;5078409;28;20411;-83
2021/11/12 07:40:10;;;;;;;19.30;11.00;;;2.00;99.90;;;;;;5078313;28;20656;-82
2021/11/12 07:42:56;;;;;;;13.03;10.27;;;;;;;;;;5060252;28;20444;-82
2021/11/12 07:47:48;;;;;;;9.27;7.60;;;;;;;;;;5078651;28;20967;-83
2021/11/12 07:50:13;;;;;;;16.10;8.40;;;2.40;99.90;;;;;;5060814;28;20489;-82
2021/11/12 07:52:39;;;;;;;9.20;8.03;;;2.60;99.90;;;;;;5060446;28;20415;-83
2021/11/12 07:55:09;;;;;;;9.53;8.53;;;2.70;99.90;;;;;;5060699;28;20216;-83
2021/11/12 07:57:35;;;;;;;10.77;8.43;;;;;;;;;;5078751;28;20176;-83
2021/11/12 08:00:02;;;;;;;8.93;8.03;;;;;;;;;;5078818;28;20768;-83
2021/11/12 08:02:28;;;;;;;9.30;7.77;;;;;;;;;;5077791;28;20411;-83
2021/11/12 08:05:01;;;;;;;15.90;10.67;;;3.80;99.90;;;;;;5077084;28;20476;-83
2021/11/12 08:07:30;;;;;;;12.20;8.57;;;3.80;99.90;;;;;;5077729;28;20729;-83
2021/11/12 08:09:58;;;;;;;14.70;8.47;;;;;;;;;;5060227;28;20419;-83
2021/11/12 08:13:01;;;;;;;9.83;7.00;;;4.20;99.90;;;;;;5059548;28;20411;-83
2021/11/12 08:15:31;;;;;;;9.87;7.53;;;4.40;99.90;;;;;;5073628;28;20937;-83
2021/11/12 08:20:36;;;;;;;10.70;7.10;;;4.60;99.90;;;;;;5078702;28;20433;-83
2021/11/12 08:23:11;;;;;;;9.43;6.90;;;4.80;99.90;;;;;;5059869;28;20165;-83
2021/11/12 08:25:48;;;;;;;10.47;7.77;;;4.80;99.90;;;;;;5060077;28;20458;-83
2021/11/12 08:28:23;;;;;;;11.17;6.60;;;4.80;99.90;;;;;;5060131;28;20407;-83
2021/11/12 08:33:30;;;;;;;9.23;7.10;;;4.90;99.90;;;;;;5078217;28;20402;-83
2021/11/12 08:38:51;;;;;;;9.27;6.30;;;4.90;99.90;;;;;;5078083;28;20164;-83
2021/11/12 08:41:21;;;;;;;7.20;5.63;;;5.10;99.90;;;;;;5078559;28;20149;-83
2021/11/12 08:43:56;;;;;;;8.00;5.70;;;5.20;99.90;;;;;;5060610;28;20158;-83
2021/11/12 08:46:47;;;;;;;6.60;5.67;;;5.20;99.90;;;;;;5060811;28;20178;-83
2021/11/12 08:49:14;;;;;;;10.63;5.73;;;5.50;99.90;;;;;;5078632;28;20177;-83
2021/11/12 08:51:41;;;;;;;10.87;5.67;;;6.20;99.90;;;;;;5061575;28;20173;-83
2021/11/12 08:54:08;;;;;;;8.00;5.40;;;6.50;99.90;;;;;;5081105;28;20185;-83
2021/11/12 08:56:36;;;;;;;6.80;5.53;;;7.00;99.90;;;;;;5085177;28;20196;-82
2021/11/12 08:59:01;;;;;;;8.07;5.73;;;7.40;99.90;;;;;;5070435;28;20179;-81
2021/11/12 09:01:27;;;;;;;8.83;5.47;;;7.80;99.90;;;;;;5064772;28;20172;-81
2021/11/12 09:03:54;;;;;;;10.33;5.90;;;8.30;99.90;;;;;;5069460;28;20218;-80
2021/11/12 09:06:22;;;;;;;9.90;5.80;;;8.90;99.90;;;;;;5067545;28;20177;-81
2021/11/12 09:08:48;;;;;;;6.93;5.60;;;9.40;99.90;;;;;;5082197;28;20583;-81
2021/11/12 09:11:14;;;;;;;9.43;5.83;;;9.90;99.90;;;;;;5077948;28;20175;-81
2021/11/12 09:14:01;;;;;;;7.93;5.57;;;10.20;99.90;;;;;;5078016;28;20183;-81
2021/11/12 09:16:35;;;;;;;7.40;5.10;;;10.20;99.90;;;;;;5079661;28;20188;-81
2021/11/12 09:19:03;;;;;;;10.30;5.97;;;10.30;99.90;;;;;;5081503;28;20156;-81
2021/11/12 09:21:30;;;;;;;11.23;8.20;;;10.40;99.90;;;;;;5062817;28;20193;-81
2021/11/12 09:23:57;;;;;;;9.17;6.10;;;11.00;99.90;;;;;;5080962;28;20176;-81
2021/11/12 09:26:24;;;;;;;9.10;5.47;;;10.90;99.90;;;;;;5081433;28;20173;-81
2021/11/12 09:28:50;;;;;;;6.40;5.27;;;11.20;99.90;;;;;;5062905;28;20585;-82
2021/11/12 09:31:17;;;;;;;8.47;6.47;;;10.90;99.90;;;;;;5080608;28;20166;-81
2021/11/12 09:33:44;;;;;;;10.47;5.40;;;10.80;99.90;;;;;;5080509;28;20173;-81
2021/11/12 09:36:10;;;;;;;6.33;5.13;;;11.00;99.90;;;;;;5080150;28;20213;-81
2021/11/12 09:38:38;;;;;;;8.47;6.00;;;11.00;99.90;;;;;;5063004;28;20260;-82
2021/11/12 09:41:06;;;;;;;5.10;4.60;;;11.20;99.90;;;;;;5063455;28;20171;-82
2021/11/12 09:43:32;;;;;;;4.97;4.47;;;11.30;99.90;;;;;;5082564;28;20172;-82
2021/11/12 09:45:58;;;;;;;6.67;5.43;;;11.20;99.90;;;;;;5082755;28;20201;-82
2021/11/12 09:48:24;;;;;;;7.97;5.87;;;11.10;99.90;;;;;;5065383;28;20193;-82
2021/11/12 09:50:51;;;;;;;7.23;6.03;;;11.00;99.90;;;;;;5065574;28;20175;-82
2021/11/12 09:53:18;;;;;;;8.97;6.10;;;11.00;99.90;;;;;;5065283;28;20190;-81
2021/11/12 09:55:44;;;;;;;7.37;6.23;;;10.60;99.90;;;;;;5083460;28;20216;-82
2021/11/12 09:58:14;;;;;;;7.17;5.50;;;10.40;99.90;;;;;;5084713;28;20254;-81
2021/11/12 10:00:41;;;;;;;6.77;6.10;;;10.00;99.90;;;;;;5066903;28;20530;-81
2021/11/12 10:03:09;;;;;;;6.43;5.80;;;9.60;99.90;;;;;;5066210;28;20178;-81
2021/11/12 10:05:45;;;;;;;10.30;6.37;;;9.30;99.90;;;;;;5065661;28;20244;-81
2021/11/12 10:08:27;;;;;;;6.87;6.27;;;8.80;99.90;;;;;;5084327;28;20222;-81
2021/11/12 10:11:19;;;;;;;9.47;6.17;;;8.20;99.90;;;;;;5066580;28;20192;-81
2021/11/12 10:13:46;;;;;;;21.80;6.07;;;7.50;99.90;;;;;;5084106;28;20203;-81
2021/11/12 10:19:01;;;;;;;8.87;6.30;;;6.80;99.90;;;;;;5084647;28;20153;-81
2021/11/12 10:21:32;;;;;;;12.87;6.17;;;6.50;99.90;;;;;;5083911;28;20210;-83
2021/11/12 10:24:07;;;;;;;9.97;6.60;;;6.30;99.90;;;;;;5066061;28;20179;-83
2021/11/12 10:26:36;;;;;;;7.47;5.90;;;6.20;99.90;;;;;;5083788;28;20173;-81
2021/11/12 10:29:08;;;;;;;9.33;5.93;;;6.10;99.90;;;;;;5083996;28;20168;-81
2021/11/12 10:31:42;;;;;;;18.33;5.37;;;6.10;99.90;;;;;;5065824;28;20165;-82
2021/11/12 10:34:13;;;;;;;16.73;6.33;;;6.00;99.90;;;;;;5083629;28;20257;-82
2021/11/12 10:37:10;;;;;;;17.60;6.33;;;6.00;99.90;;;;;;5083082;28;20204;-81
2021/11/12 10:39:40;;;;;;;20.67;6.30;;;6.00;99.90;;;;;;5050115;28;20179;-81
2021/11/12 10:42:12;;;;;;;15.80;6.80;;;5.90;99.90;;;;;;5065878;28;20177;-81
2021/11/12 10:44:47;;;;;;;13.30;6.57;;;5.70;99.90;;;;;;5083149;28;20185;-82
2021/11/12 10:47:14;;;;;;;28.93;6.77;;;5.60;99.90;;;;;;5083948;28;20669;-81
2021/11/12 10:49:42;;;;;;;13.80;7.17;;;5.60;99.90;;;;;;5065482;28;20178;-81
2021/11/12 10:52:14;;;;;;;10.30;7.27;;;5.60;99.90;;;;;;5065162;28;20174;-82
2021/11/12 10:55:01;;;;;;;32.67;7.27;;;5.80;99.90;;;;;;5065481;28;20695;-81
2021/11/12 10:57:54;;;;;;;17.23;7.57;;;5.90;99.90;;;;;;5081839;28;20198;-81
2021/11/12 11:00:22;;;;;;;9.80;6.83;;;5.90;99.90;;;;;;5084896;28;20165;-81
2021/11/12 11:02:57;;;;;;;13.00;7.90;;;6.00;99.90;;;;;;5085463;28;20173;-82
2021/11/12 11:05:58;;;;;;;8.70;7.63;;;5.80;99.90;;;;;;5085343;28;20208;-81
2021/11/12 11:08:26;;;;;;;20.63;7.47;;;5.80;99.90;;;;;;5078733;28;20264;-84
2021/11/12 11:10:56;;;;;;;20.27;8.23;;;5.90;99.90;;;;;;5075597;28;20201;-81
2021/11/12 11:13:28;;;;;;;25.70;8.17;;;5.90;99.90;;;;;;5071009;28;20178;-82
2021/11/12 11:15:58;;;;;;;56.40;8.23;;;5.90;99.90;;;;;;5066554;28;20275;-83
2021/11/12 11:18:32;;;;;;;15.20;6.70;;;5.80;99.90;;;;;;5067816;28;20247;-82
2021/11/12 11:23:47;;;;;;;16.40;7.23;;;5.70;99.90;;;;;;5084281;28;20153;-82
2021/11/12 11:26:22;;;;;;;54.47;8.07;;;5.60;99.90;;;;;;5064531;28;20203;-82
2021/11/12 11:28:49;;;;;;;25.40;8.17;;;5.40;99.90;;;;;;5083170;28;20152;-82
2021/11/12 11:31:16;;;;;;;21.47;7.87;;;5.30;99.90;;;;;;5082883;28;20175;-82
2021/11/12 11:33:45;;;;;;;21.20;7.50;;;5.40;99.90;;;;;;5065036;28;20176;-82
2021/11/12 11:36:12;;;;;;;35.37;8.43;;;5.30;99.90;;;;;;5082715;28;20207;-82
2021/11/12 11:38:40;;;;;;;41.70;8.93;;;5.40;99.90;;;;;;5065047;28;20180;-82
2021/11/12 11:41:12;;;;;;;27.13;8.27;;;5.40;99.90;;;;;;5065498;28;20240;-82
2021/11/12 11:43:39;;;;;;;24.57;8.43;;;5.40;99.90;;;;;;5082859;28;20158;-82
2021/11/12 11:46:09;;;;;;;13.57;9.57;;;5.40;99.90;;;;;;5064082;28;20207;-82
2021/11/12 11:48:37;;;;;;;29.73;9.03;;;5.50;99.90;;;;;;5082745;28;20579;-82
2021/11/12 11:51:04;;;;;;;17.83;9.23;;;5.50;99.90;;;;;;5083457;28;20169;-82
2021/11/12 11:53:37;;;;;;;34.77;9.23;;;5.40;99.90;;;;;;5083380;28;20177;-81
2021/11/12 11:56:28;;;;;;;34.00;9.43;;;5.40;99.90;;;;;;5064524;28;20205;-81
2021/11/12 11:59:01;;;;;;;32.23;10.37;;;5.30;99.90;;;;;;5082780;28;20384;-79
2021/11/12 12:01:30;;;;;;;35.50;9.93;;;5.30;99.90;;;;;;5082536;28;20176;-81
2021/11/12 12:04:16;;;;;;;16.60;9.33;;;5.30;99.90;;;;;;5081743;28;20253;-82
2021/11/12 12:07:03;;;;;;;52.43;9.17;;;5.30;99.90;;;;;;5067464;28;20188;-81
2021/11/12 12:09:49;;;;;;;22.77;8.67;;;5.40;99.90;;;;;;5062207;28;20212;-81
2021/11/12 12:12:36;;;;;;;21.60;9.10;;;5.40;99.90;;;;;;5079534;28;20153;-82
2021/11/12 12:15:04;;;;;;;43.13;9.23;;;5.40;99.90;;;;;;5079371;28;20263;-80
2021/11/12 12:17:33;;;;;;;27.87;9.07;;;5.50;99.90;;;;;;5081196;28;20194;-81
2021/11/12 13:25:41;;;;;;;60.07;13.57;;;5.10;99.90;;;;;;5086343;28;20723;-82
2021/11/12 13:28:06;;;;;;;62.07;12.37;;;5.00;99.90;;;;;;5068044;28;20160;-83
2021/11/12 13:30:32;;;;;;;94.83;13.93;;;5.10;99.90;;;;;;5086081;28;20465;-82
2021/11/12 13:32:58;;;;;;;92.23;12.90;;;4.90;99.90;;;;;;5087685;28;20179;-82
2021/11/12 13:35:33;;;;;;;35.13;14.30;;;4.90;99.90;;;;;;5068901;28;20216;-82
2021/11/12 13:37:58;;;;;;;46.10;13.30;;;4.90;99.90;;;;;;5089220;28;20157;-82
2021/11/12 13:40:30;;;;;;;32.10;12.20;;;4.90;99.90;;;;;;5069180;28;20196;-82
2021/11/12 13:42:56;;;;;;;48.93;14.40;;;4.90;99.90;;;;;;5091176;28;20169;-82
2021/11/12 13:45:23;;;;;;;41.00;12.70;;;4.90;99.90;;;;;;5062430;28;20945;-82
2021/11/12 13:48:11;;;;;;;27.23;13.03;;;4.80;99.90;;;;;;5081682;28;20177;-82
2021/11/12 13:50:52;;;;;;;38.77;12.63;;;4.80;99.90;;;;;;5082945;28;20167;-81
2021/11/12 13:53:18;;;;;;;54.80;12.57;;;4.70;99.90;;;;;;5064556;28;20402;-82
2021/11/12 13:55:45;;;;;;;31.80;13.60;;;4.80;99.90;;;;;;5065097;28;20513;-82
2021/11/12 13:58:11;;;;;;;40.37;12.70;;;4.80;99.90;;;;;;5081878;28;20239;-83
2021/11/12 14:00:37;;;;;;;53.70;12.37;;;4.80;99.90;;;;;;5062898;28;20566;-83
2021/11/12 14:03:11;;;;;;;26.63;12.60;;;4.80;99.90;;;;;;5062827;28;20539;-84
2021/11/12 14:05:58;;;;;;;61.57;12.53;;;4.80;99.90;;;;;;5062682;28;20684;-83
2021/11/12 14:08:46;;;;;;;103.20;14.37;;;4.70;99.90;;;;;;5063231;28;20415;-81
2021/11/12 14:11:32;;;;;;;59.33;12.30;;;4.70;99.90;;;;;;5063207;28;20760;-81
2021/11/12 14:14:04;;;;;;;58.63;12.43;;;4.50;99.90;;;;;;5062250;28;20456;-83
2021/11/12 14:16:36;;;;;;;113.53;13.13;;;4.50;99.90;;;;;;5080360;28;20944;-82
2021/11/12 14:22:08;;;;;;;92.17;13.70;;;4.30;99.90;;;;;;5080269;28;20537;-82
2021/11/12 14:46:37;;;;;;;51.40;13.07;;;4.10;99.90;;;;;;5083037;28;20456;-84
2021/11/12 14:54:48;;;;;;;90.40;19.47;;;4.10;99.90;;;;;;5081689;28;20464;-82
2021/11/12 14:57:33;;;;;;;82.77;12.13;;;4.10;99.90;;;;;;5064566;28;20458;-83
2021/11/12 15:00:08;;;;;;;78.23;12.40;;;4.00;99.90;;;;;;5063752;28;20897;-83
2021/11/12 15:02:38;;;;;;;57.20;12.97;;;4.00;99.90;;;;;;5062889;28;20399;-82
2021/11/12 15:05:05;;;;;;;97.10;13.13;;;3.80;99.90;;;;;;5062521;28;20434;-82
2021/11/12 15:07:43;;;;;;;55.50;13.03;;;3.80;99.90;;;;;;5064736;28;20532;-83
2021/11/12 15:10:17;;;;;;;60.20;12.73;;;3.80;99.90;;;;;;5066182;28;20403;-82
2021/11/12 15:12:48;;;;;;;63.67;14.57;;;3.70;99.90;;;;;;5061192;28;20418;-82
2021/11/12 15:15:15;;;;;;;106.63;15.07;;;3.60;99.90;;;;;;5057425;28;20443;-82
2021/11/12 15:17:41;;;;;;;68.67;13.90;;;3.80;99.90;;;;;;5060729;28;20465;-82
2021/11/12 15:20:08;;;;;;;110.20;15.20;;;3.70;99.90;;;;;;5071622;28;20433;-82
2021/11/12 15:22:43;;;;;;;104.60;19.83;;;3.70;99.90;;;;;;5068443;28;20411;-83
2021/11/12 15:25:19;;;;;;;62.10;16.00;;;3.80;99.90;;;;;;5081754;28;20427;-83
2021/11/12 15:35:41;;;;;;;110.23;20.87;;;3.60;99.90;;;;;;5076235;28;20260;-83
2021/11/12 15:41:00;;;;;;;82.70;21.03;;;3.50;99.90;;;;;;5051750;28;20412;-83
2021/11/12 15:43:39;;;;;;;48.33;15.50;;;3.60;99.90;;;;;;5062727;28;20407;-83
2021/11/12 15:46:13;;;;;;;45.80;14.60;;;3.70;99.90;;;;;;5062025;28;20485;-82
2021/11/12 15:48:39;;;;;;;59.13;15.53;;;3.70;99.90;;;;;;5063069;28;20408;-81
2021/11/12 15:51:41;;;;;;;26.77;13.40;;;3.80;99.90;;;;;;5059564;28;20419;-82
2021/11/12 15:54:54;;;;;;;29.23;13.97;;;3.70;99.90;;;;;;5071659;28;20423;-82
2021/11/12 15:56:59;;;;;;;129.60;44.50;;;3.70;99.90;;;;;;5066224;28;20462;-82
2021/11/12 15:59:39;;;;;;;276.53;69.07;;;3.60;99.90;;;;;;5060976;28;20399;-82
2021/11/12 16:12:38;;;;;;;87.33;21.53;;;3.40;99.90;;;;;;5076036;28;20294;-82
2021/11/12 16:15:21;;;;;;;71.03;12.70;;;3.20;99.90;;;;;;5057604;28;20439;-82
2021/11/12 16:27:43;;;;;;;79.27;13.83;;;4.20;99.90;;;;;;5079444;28;20423;-82
2021/11/12 16:30:10;;;;;;;34.97;15.03;;;3.00;99.90;;;;;;5060033;28;20438;-82
2021/11/12 16:32:39;;;;;;;52.23;15.87;;;3.10;99.90;;;;;;5060176;28;20419;-82
2021/11/12 16:35:09;;;;;;;51.20;17.90;;;3.20;99.90;;;;;;5061105;28;20456;-83
2021/11/12 16:37:34;;;;;;;96.27;19.50;;;3.20;99.90;;;;;;5061227;28;20511;-82
2021/11/12 16:40:05;;;;;;;108.23;19.67;;;3.10;99.90;;;;;;5061506;28;20504;-82
2021/11/12 16:47:39;;;;;;;95.53;19.83;;;3.30;99.90;;;;;;5079794;28;20177;-82
2021/11/12 17:06:20;;;;;;;154.20;22.87;;;3.20;99.90;;;;;;5079922;28;20438;-82
2021/11/12 17:09:14;;;;;;;154.17;23.90;;;3.20;99.90;;;;;;5059529;28;20415;-82
2021/11/12 17:11:48;;;;;;;141.43;21.50;;;3.30;99.90;;;;;;5060540;28;20418;-82
2021/11/12 18:02:34;;;;;;;97.63;20.47;;;3.00;99.90;;;;;;5079378;28;20474;-82
2021/11/12 21:45:58;;;;;;;23.20;16.87;;;1.40;99.90;;;;;;5083738;28;20437;-83
2021/11/12 21:48:25;;;;;;;21.93;15.97;;;1.40;99.90;;;;;;5067719;28;20414;-83
2021/11/12 21:50:54;;;;;;;23.70;18.00;;;1.40;99.90;;;;;;5068087;28;20548;-83
2021/11/12 21:53:22;;;;;;;25.03;17.10;;;1.40;99.90;;;;;;5086927;28;20395;-83
2021/11/12 21:55:53;;;;;;;25.17;18.90;;;1.40;99.90;;;;;;5075479;28;20439;-82
2021/11/12 21:58:19;;;;;;;24.50;16.90;;;1.50;99.90;;;;;;5096253;28;20482;-82
2021/11/12 22:00:47;;;;;;;22.40;17.67;;;1.40;99.90;;;;;;5095175;28;20471;-82
2021/11/12 22:03:14;;;;;;;26.93;20.43;;;1.40;99.90;;;;;;5067445;28;20407;-83
2021/11/12 22:05:40;;;;;;;25.80;18.13;;;1.30;99.90;;;;;;5083085;28;20431;-84
2021/11/12 22:08:05;;;;;;;23.43;17.47;;;1.30;99.90;;;;;;5064143;28;20407;-84
2021/11/12 22:10:31;;;;;;;22.93;17.27;;;1.30;99.90;;;;;;5064513;28;20576;-84
2021/11/12 22:12:57;;;;;;;23.10;16.83;;;1.40;99.90;;;;;;5064678;28;20508;-85
2021/11/12 22:15:22;;;;;;;23.33;15.77;;;1.30;99.90;;;;;;5065158;28;20197;-83
2021/11/12 22:17:48;;;;;;;19.87;14.70;;;1.30;99.90;;;;;;5065421;28;20297;-83
2021/11/12 22:20:16;;;;;;;21.00;15.80;;;1.20;99.90;;;;;;5065477;28;20173;-83
2021/11/12 22:22:41;;;;;;;25.87;17.57;;;1.20;99.90;;;;;;5066323;28;20169;-83
2021/11/12 22:25:08;;;;;;;35.13;17.67;;;1.60;99.90;;;;;;5084997;28;20458;-83
2021/11/12 22:27:34;;;;;;;35.10;16.60;;;;;;;;;;5086801;28;20184;-82
2021/11/12 22:30:00;;;;;;;42.97;18.20;;;1.20;99.90;;;;;;5081039;28;20415;-82
2021/11/12 22:32:25;;;;;;;33.70;16.50;;;1.20;99.90;;;;;;5080429;28;20407;-83
2021/11/12 22:34:53;;;;;;;26.00;16.57;;;1.20;99.90;;;;;;5062574;28;20197;-83
2021/11/12 22:37:19;;;;;;;27.87;16.53;;;1.20;99.90;;;;;;5062106;28;20201;-82
2021/11/12 22:39:45;;;;;;;21.63;13.90;;;;;;;;;;5080001;28;20403;-82
2021/11/12 22:42:12;;;;;;;24.90;16.17;;;1.20;99.90;;;;;;5061568;28;20421;-82
2021/11/12 22:44:38;;;;;;;23.63;16.43;;;;;;;;;;5061702;28;20431;-82
2021/11/12 22:47:04;;;;;;;22.40;16.30;;;1.20;99.90;;;;;;5061919;28;20411;-82
2021/11/12 22:49:30;;;;;;;24.53;16.80;;;1.30;99.90;;;;;;5078813;28;20908;-82
2021/11/12 22:51:56;;;;;;;23.23;16.23;;;1.30;99.90;;;;;;5078226;28;20422;-82
2021/11/12 22:54:24;;;;;;;23.00;15.83;;;;;;;;;;5077131;28;20708;-82
2021/11/12 22:56:50;;;;;;;25.00;14.70;;;;;;;;;;5059539;28;20455;-82
2021/11/12 22:59:16;;;;;;;24.67;15.10;;;;;;;;;;5078784;28;20400;-83
2021/11/12 23:01:43;;;;;;;23.80;16.03;;;1.40;99.90;;;;;;5064640;28;20502;-83
2021/11/12 23:04:09;;;;;;;22.00;15.60;;;1.30;99.90;;;;;;5064966;28;20257;-83
2021/11/12 23:06:35;;;;;;;24.43;16.67;;;2.40;99.90;;;;;;5082594;28;20453;-83
2021/11/12 23:09:01;;;;;;;22.03;15.33;;;;;;;;;;5064378;28;20173;-83
2021/11/12 23:11:27;;;;;;;24.37;15.97;;;;;;;;;;5065032;28;20210;-83
2021/11/12 23:13:53;;;;;;;24.97;16.80;;;;;;;;;;5063252;28;20771;-84
2021/11/12 23:16:20;;;;;;;25.60;16.80;;;1.40;99.90;;;;;;5082351;28;20450;-83
2021/11/12 23:18:47;;;;;;;26.40;16.90;;;;;;;;;;5083738;28;20438;-83
2021/11/12 23:21:13;;;;;;;28.67;18.40;;;;;;;;;;5063771;28;20847;-83
2021/11/12 23:23:41;;;;;;;29.57;19.57;;;1.50;99.90;;;;;;5082285;28;20452;-83
2021/11/12 23:26:07;;;;;;;32.43;19.97;;;;;;;;;;5064050;28;20431;-83